sensor_id;sensor_type;location;lat;lon;timestamp;pressure;altitude;pressure_sealevel;temperature;humidity
43503;BME280;29098;48.184;16.298;2024-03-02T00:02:07;98571.88;;;6.24;100.00
43503;BME280;29098;48.184;16.298;2024-03-02T00:04:33;98535.19;;;6.01;100.00
43503;BME280;29098;48.184;16.298;2024-03-02T00:06:59;98528.28;;;6.00;100.00
43503;BME280;29098;48.184;16.298;2024-03-02T00:09:24;98562.44;;;6.15;100.00
43503;BME280;29098;48.184;16.298;2024-03-02T00:11:50;98549.56;;;6.05;100.00
43503;BME280;29098;48.184;16.298;2024-03-02T00:14:16;98537.78;;;6.09;100.00
43503;BME280;29098;48.184;16.298;2024-03-02T00:16:42;98583.03;;;6.18;100.00
43503;BME280;29098;48.184;16.298;2024-03-02T00:19:08;98576.16;;;6.17;100.00
43503;BME280;29098;48.184;16.298;2024-03-02T00:21:34;98567.59;;;5.92;100.00
43503;BME280;29098;48.184;16.298;2024-03-02T00:24:01;98573.00;;;5.90;100.00
43503;BME280;29098;48.184;16.298;2024-03-02T00:26:32;98528.47;;;5.67;100.00
43503;BME280;29098;48.184;16.298;2024-03-02T00:28:59;98590.13;;;6.01;100.00
43503;BME280;29098;48.184;16.298;2024-03-02T00:31:25;98540.69;;;5.74;100.00
43503;BME280;29098;48.184;16.298;2024-03-02T00:33:51;98546.59;;;5.68;100.00
43503;BME280;29098;48.184;16.298;2024-03-02T00:36:22;98550.47;;;5.81;100.00
43503;BME280;29098;48.184;16.298;2024-03-02T00:38:51;98537.13;;;5.67;100.00
43503;BME280;29098;48.184;16.298;2024-03-02T00:41:27;98531.03;;;5.75;100.00
43503;BME280;29098;48.184;16.298;2024-03-02T00:44:04;98550.22;;;5.67;100.00
43503;BME280;29098;48.184;16.298;2024-03-02T00:46:38;98565.59;;;5.62;100.00
43503;BME280;29098;48.184;16.298;2024-03-02T00:49:24;98543.19;;;5.59;100.00
43503;BME280;29098;48.184;16.298;2024-03-02T00:51:52;98564.28;;;5.58;100.00
43503;BME280;29098;48.184;16.298;2024-03-02T00:54:22;98578.97;;;5.67;100.00
43503;BME280;29098;48.184;16.298;2024-03-02T00:56:49;98579.97;;;5.66;100.00
43503;BME280;29098;48.184;16.298;2024-03-02T00:59:15;98531.63;;;5.54;100.00
43503;BME280;29098;48.184;16.298;2024-03-02T01:01:41;98578.31;;;5.65;100.00
43503;BME280;29098;48.184;16.298;2024-03-02T01:04:07;98529.81;;;5.54;100.00
43503;BME280;29098;48.184;16.298;2024-03-02T01:06:33;98547.34;;;5.45;100.00
43503;BME280;29098;48.184;16.298;2024-03-02T01:08:59;98548.47;;;5.43;100.00
43503;BME280;29098;48.184;16.298;2024-03-02T01:11:24;98569.38;;;5.51;100.00
43503;BME280;29098;48.184;16.298;2024-03-02T01:13:50;98518.63;;;5.29;100.00
43503;BME280;29098;48.184;16.298;2024-03-02T01:16:17;98559.41;;;5.46;100.00
43503;BME280;29098;48.184;16.298;2024-03-02T01:18:42;98548.34;;;5.36;100.00
43503;BME280;29098;48.184;16.298;2024-03-02T01:21:08;98505.28;;;5.15;100.00
43503;BME280;29098;48.184;16.298;2024-03-02T01:23:33;98515.19;;;5.28;100.00
43503;BME280;29098;48.184;16.298;2024-03-02T01:25:59;98521.91;;;5.31;100.00
43503;BME280;29098;48.184;16.298;2024-03-02T01:28:24;98544.75;;;5.37;100.00
43503;BME280;29098;48.184;16.298;2024-03-02T01:30:50;98536.44;;;5.25;100.00
43503;BME280;29098;48.184;16.298;2024-03-02T01:33:16;98535.94;;;5.30;100.00
43503;BME280;29098;48.184;16.298;2024-03-02T01:35:42;98549.97;;;5.37;100.00
43503;BME280;29098;48.184;16.298;2024-03-02T01:38:08;98538.88;;;5.27;100.00
43503;BME280;29098;48.184;16.298;2024-03-02T01:40:37;98500.59;;;4.94;100.00
43503;BME280;29098;48.184;16.298;2024-03-02T01:43:06;98544.97;;;5.11;100.00
43503;BME280;29098;48.184;16.298;2024-03-02T01:45:32;98567.78;;;5.33;100.00
43503;BME280;29098;48.184;16.298;2024-03-02T01:47:58;98540.69;;;5.26;100.00
43503;BME280;29098;48.184;16.298;2024-03-02T01:50:32;98573.19;;;5.32;100.00
43503;BME280;29098;48.184;16.298;2024-03-02T01:52:58;98509.03;;;5.13;100.00
43503;BME280;29098;48.184;16.298;2024-03-02T01:55:24;98518.97;;;5.17;100.00
43503;BME280;29098;48.184;16.298;2024-03-02T01:57:50;98516.19;;;5.27;100.00
43503;BME280;29098;48.184;16.298;2024-03-02T02:00:16;98506.31;;;4.98;100.00
43503;BME280;29098;48.184;16.298;2024-03-02T02:02:43;98548.84;;;5.40;100.00
43503;BME280;29098;48.184;16.298;2024-03-02T02:05:08;98517.00;;;5.19;100.00
43503;BME280;29098;48.184;16.298;2024-03-02T02:07:35;98554.72;;;5.33;100.00
43503;BME280;29098;48.184;16.298;2024-03-02T02:10:01;98503.66;;;5.14;100.00
43503;BME280;29098;48.184;16.298;2024-03-02T02:12:26;98494.03;;;5.06;100.00
43503;BME280;29098;48.184;16.298;2024-03-02T02:14:52;98484.59;;;4.89;100.00
43503;BME280;29098;48.184;16.298;2024-03-02T02:17:17;98529.81;;;4.98;100.00
43503;BME280;29098;48.184;16.298;2024-03-02T02:19:43;98521.56;;;5.26;100.00
43503;BME280;29098;48.184;16.298;2024-03-02T02:22:11;98509.88;;;5.05;100.00
43503;BME280;29098;48.184;16.298;2024-03-02T02:24:41;98533.81;;;5.33;100.00
43503;BME280;29098;48.184;16.298;2024-03-02T02:27:09;98549.97;;;5.37;100.00
43503;BME280;29098;48.184;16.298;2024-03-02T02:29:36;98535.31;;;5.19;100.00
43503;BME280;29098;48.184;16.298;2024-03-02T02:32:02;98551.31;;;5.25;100.00
43503;BME280;29098;48.184;16.298;2024-03-02T02:34:28;98510.66;;;5.14;100.00
43503;BME280;29098;48.184;16.298;2024-03-02T02:36:53;98523.84;;;5.37;100.00
43503;BME280;29098;48.184;16.298;2024-03-02T02:39:21;98494.81;;;5.15;100.00
43503;BME280;29098;48.184;16.298;2024-03-02T02:41:47;98494.16;;;5.21;100.00
43503;BME280;29098;48.184;16.298;2024-03-02T02:44:13;98483.06;;;5.11;100.00
43503;BME280;29098;48.184;16.298;2024-03-02T02:46:39;98495.16;;;5.20;100.00
43503;BME280;29098;48.184;16.298;2024-03-02T02:49:04;98502.50;;;5.17;100.00
43503;BME280;29098;48.184;16.298;2024-03-02T02:51:30;98495.34;;;5.02;100.00
43503;BME280;29098;48.184;16.298;2024-03-02T02:53:56;98527.00;;;5.07;100.00
43503;BME280;29098;48.184;16.298;2024-03-02T02:56:21;98496.50;;;5.00;100.00
43503;BME280;29098;48.184;16.298;2024-03-02T02:58:47;98483.47;;;4.83;100.00
43503;BME280;29098;48.184;16.298;2024-03-02T03:01:12;98487.19;;;4.97;100.00
43503;BME280;29098;48.184;16.298;2024-03-02T03:03:38;98495.50;;;5.01;100.00
43503;BME280;29098;48.184;16.298;2024-03-02T03:06:04;98473.03;;;4.75;100.00
43503;BME280;29098;48.184;16.298;2024-03-02T03:08:29;98489.97;;;4.96;100.00
43503;BME280;29098;48.184;16.298;2024-03-02T03:10:54;98527.50;;;4.94;100.00
43503;BME280;29098;48.184;16.298;2024-03-02T03:13:20;98531.88;;;5.19;100.00
43503;BME280;29098;48.184;16.298;2024-03-02T03:15:46;98505.47;;;5.05;100.00
43503;BME280;29098;48.184;16.298;2024-03-02T03:18:11;98503.38;;;4.92;100.00
43503;BME280;29098;48.184;16.298;2024-03-02T03:20:36;98512.97;;;5.17;100.00
43503;BME280;29098;48.184;16.298;2024-03-02T03:23:02;98505.75;;;5.19;100.00
43503;BME280;29098;48.184;16.298;2024-03-02T03:25:29;98477.50;;;5.23;100.00
43503;BME280;29098;48.184;16.298;2024-03-02T03:27:55;98506.72;;;5.26;100.00
43503;BME280;29098;48.184;16.298;2024-03-02T03:30:20;98513.09;;;5.24;100.00
43503;BME280;29098;48.184;16.298;2024-03-02T03:32:46;98505.91;;;5.26;100.00
43503;BME280;29098;48.184;16.298;2024-03-02T03:35:13;98491.38;;;5.31;100.00
43503;BME280;29098;48.184;16.298;2024-03-02T03:37:42;98505.00;;;5.50;100.00
43503;BME280;29098;48.184;16.298;2024-03-02T03:40:08;98527.38;;;5.53;100.00
43503;BME280;29098;48.184;16.298;2024-03-02T03:42:37;98507.78;;;5.48;100.00
43503;BME280;29098;48.184;16.298;2024-03-02T03:45:03;98508.63;;;5.41;100.00
43503;BME280;29098;48.184;16.298;2024-03-02T03:47:31;98499.16;;;5.40;100.00
43503;BME280;29098;48.184;16.298;2024-03-02T03:49:56;98553.53;;;5.53;100.00
43503;BME280;29098;48.184;16.298;2024-03-02T03:52:23;98509.16;;;5.36;100.00
43503;BME280;29098;48.184;16.298;2024-03-02T03:54:48;98538.16;;;5.49;100.00
43503;BME280;29098;48.184;16.298;2024-03-02T03:57:14;98508.50;;;5.26;100.00
43503;BME280;29098;48.184;16.298;2024-03-02T03:59:39;98527.59;;;5.34;100.00
43503;BME280;29098;48.184;16.298;2024-03-02T04:02:04;98486.97;;;5.24;100.00
43503;BME280;29098;48.184;16.298;2024-03-02T04:04:30;98493.81;;;5.25;100.00
43503;BME280;29098;48.184;16.298;2024-03-02T04:06:55;98547.94;;;5.56;100.00
43503;BME280;29098;48.184;16.298;2024-03-02T04:09:21;98514.34;;;5.44;100.00
43503;BME280;29098;48.184;16.298;2024-03-02T04:11:46;98522.22;;;5.36;100.00
43503;BME280;29098;48.184;16.298;2024-03-02T04:14:11;98504.00;;;5.51;100.00
43503;BME280;29098;48.184;16.298;2024-03-02T04:16:38;98552.19;;;5.57;100.00
43503;BME280;29098;48.184;16.298;2024-03-02T04:19:04;98504.25;;;5.25;100.00
43503;BME280;29098;48.184;16.298;2024-03-02T04:21:29;98487.91;;;5.31;100.00
43503;BME280;29098;48.184;16.298;2024-03-02T04:23:55;98528.72;;;5.40;100.00
43503;BME280;29098;48.184;16.298;2024-03-02T04:26:24;98539.13;;;5.57;100.00
43503;BME280;29098;48.184;16.298;2024-03-02T04:28:51;98542.28;;;5.44;100.00
43503;BME280;29098;48.184;16.298;2024-03-02T04:31:16;98549.44;;;5.50;100.00
43503;BME280;29098;48.184;16.298;2024-03-02T04:33:42;98515.34;;;5.35;100.00
43503;BME280;29098;48.184;16.298;2024-03-02T04:36:07;98505.84;;;5.42;100.00
43503;BME280;29098;48.184;16.298;2024-03-02T04:38:35;98519.69;;;5.51;100.00
43503;BME280;29098;48.184;16.298;2024-03-02T04:41:00;98575.56;;;5.58;100.00
43503;BME280;29098;48.184;16.298;2024-03-02T04:43:26;98575.09;;;5.46;100.00
43503;BME280;29098;48.184;16.298;2024-03-02T04:45:51;98525.16;;;5.25;100.00
43503;BME280;29098;48.184;16.298;2024-03-02T04:48:16;98544.56;;;5.47;100.00
43503;BME280;29098;48.184;16.298;2024-03-02T04:50:42;98550.53;;;5.64;100.00
43503;BME280;29098;48.184;16.298;2024-03-02T04:53:07;98540.81;;;5.41;100.00
43503;BME280;29098;48.184;16.298;2024-03-02T04:55:33;98541.09;;;5.55;100.00
43503;BME280;29098;48.184;16.298;2024-03-02T04:58:04;98519.59;;;5.36;100.00
43503;BME280;29098;48.184;16.298;2024-03-02T05:00:30;98589.00;;;5.39;100.00
43503;BME280;29098;48.184;16.298;2024-03-02T05:02:55;98546.25;;;5.31;100.00
43503;BME280;29098;48.184;16.298;2024-03-02T05:05:21;98589.47;;;5.51;100.00
43503;BME280;29098;48.184;16.298;2024-03-02T05:07:46;98554.25;;;5.30;100.00
43503;BME280;29098;48.184;16.298;2024-03-02T05:10:12;98550.63;;;5.31;100.00
43503;BME280;29098;48.184;16.298;2024-03-02T05:12:38;98591.94;;;5.44;100.00
43503;BME280;29098;48.184;16.298;2024-03-02T05:15:13;98582.84;;;5.31;100.00
43503;BME280;29098;48.184;16.298;2024-03-02T05:17:40;98567.28;;;5.38;100.00
43503;BME280;29098;48.184;16.298;2024-03-02T05:20:06;98562.88;;;5.30;100.00
43503;BME280;29098;48.184;16.298;2024-03-02T05:22:36;98549.00;;;5.30;100.00
43503;BME280;29098;48.184;16.298;2024-03-02T05:25:03;98596.03;;;5.46;100.00
43503;BME280;29098;48.184;16.298;2024-03-02T05:27:29;98552.28;;;5.32;100.00
43503;BME280;29098;48.184;16.298;2024-03-02T05:29:54;98586.88;;;5.42;100.00
43503;BME280;29098;48.184;16.298;2024-03-02T05:32:19;98547.72;;;5.17;100.00
43503;BME280;29098;48.184;16.298;2024-03-02T05:34:45;98590.66;;;5.31;100.00
43503;BME280;29098;48.184;16.298;2024-03-02T05:37:11;98584.94;;;5.19;100.00
43503;BME280;29098;48.184;16.298;2024-03-02T05:39:36;98608.97;;;5.31;100.00
43503;BME280;29098;48.184;16.298;2024-03-02T05:42:02;98595.72;;;5.33;100.00
43503;BME280;29098;48.184;16.298;2024-03-02T05:44:28;98590.19;;;5.28;100.00
43503;BME280;29098;48.184;16.298;2024-03-02T05:46:53;98614.81;;;5.42;100.00
43503;BME280;29098;48.184;16.298;2024-03-02T05:49:19;98589.19;;;5.29;100.00
43503;BME280;29098;48.184;16.298;2024-03-02T05:51:44;98614.50;;;5.28;100.00
43503;BME280;29098;48.184;16.298;2024-03-02T05:54:10;98575.19;;;5.05;100.00
43503;BME280;29098;48.184;16.298;2024-03-02T05:56:35;98564.03;;;5.19;100.00
43503;BME280;29098;48.184;16.298;2024-03-02T05:59:01;98575.50;;;5.10;100.00
43503;BME280;29098;48.184;16.298;2024-03-02T06:01:41;98621.84;;;5.25;100.00
43503;BME280;29098;48.184;16.298;2024-03-02T06:04:08;98621.84;;;5.25;100.00
43503;BME280;29098;48.184;16.298;2024-03-02T06:06:34;98640.31;;;5.31;100.00
43503;BME280;29098;48.184;16.298;2024-03-02T06:09:03;98638.53;;;5.24;100.00
43503;BME280;29098;48.184;16.298;2024-03-02T06:11:38;98650.59;;;5.41;100.00
43503;BME280;29098;48.184;16.298;2024-03-02T06:14:05;98657.63;;;5.32;100.00
43503;BME280;29098;48.184;16.298;2024-03-02T06:16:31;98654.53;;;5.20;100.00
43503;BME280;29098;48.184;16.298;2024-03-02T06:18:57;98658.78;;;5.38;100.00
43503;BME280;29098;48.184;16.298;2024-03-02T06:21:26;98649.31;;;5.20;100.00
43503;BME280;29098;48.184;16.298;2024-03-02T06:23:51;98629.72;;;5.00;100.00
43503;BME280;29098;48.184;16.298;2024-03-02T06:26:17;98661.88;;;5.25;100.00
43503;BME280;29098;48.184;16.298;2024-03-02T06:28:43;98618.13;;;5.19;100.00
43503;BME280;29098;48.184;16.298;2024-03-02T06:31:09;98596.25;;;5.03;100.00
43503;BME280;29098;48.184;16.298;2024-03-02T06:33:35;98632.31;;;5.16;100.00
43503;BME280;29098;48.184;16.298;2024-03-02T06:36:00;98643.59;;;5.25;100.00
43503;BME280;29098;48.184;16.298;2024-03-02T06:38:26;98600.63;;;5.19;100.00
43503;BME280;29098;48.184;16.298;2024-03-02T06:40:51;98637.22;;;5.19;100.00
43503;BME280;29098;48.184;16.298;2024-03-02T06:43:17;98594.28;;;5.05;100.00
43503;BME280;29098;48.184;16.298;2024-03-02T06:45:42;98637.22;;;5.19;100.00
43503;BME280;29098;48.184;16.298;2024-03-02T06:48:08;98651.41;;;5.42;100.00
43503;BME280;29098;48.184;16.298;2024-03-02T06:50:33;98646.31;;;5.48;100.00
43503;BME280;29098;48.184;16.298;2024-03-02T06:52:59;98626.91;;;5.43;100.00
43503;BME280;29098;48.184;16.298;2024-03-02T06:55:24;98663.00;;;5.39;100.00
43503;BME280;29098;48.184;16.298;2024-03-02T06:57:50;98592.13;;;5.17;100.00
43503;BME280;29098;48.184;16.298;2024-03-02T07:00:16;98658.75;;;5.46;100.00
43503;BME280;29098;48.184;16.298;2024-03-02T07:02:45;98629.38;;;5.19;100.00
43503;BME280;29098;48.184;16.298;2024-03-02T07:05:11;98633.28;;;5.24;100.00
43503;BME280;29098;48.184;16.298;2024-03-02T07:07:36;98664.00;;;5.46;100.00
43503;BME280;29098;48.184;16.298;2024-03-02T07:10:06;98624.09;;;5.61;100.00
43503;BME280;29098;48.184;16.298;2024-03-02T07:12:32;98620.00;;;5.58;100.00
43503;BME280;29098;48.184;16.298;2024-03-02T07:14:58;98595.53;;;5.43;100.00
43503;BME280;29098;48.184;16.298;2024-03-02T07:17:30;98666.91;;;5.60;100.00
43503;BME280;29098;48.184;16.298;2024-03-02T07:19:56;98654.81;;;5.51;100.00
43503;BME280;29098;48.184;16.298;2024-03-02T07:22:21;98597.19;;;5.35;100.00
43503;BME280;29098;48.184;16.298;2024-03-02T07:24:47;98663.94;;;5.71;100.00
43503;BME280;29098;48.184;16.298;2024-03-02T07:27:13;98658.09;;;5.61;100.00
43503;BME280;29098;48.184;16.298;2024-03-02T07:29:40;98629.53;;;5.43;100.00
43503;BME280;29098;48.184;16.298;2024-03-02T07:32:06;98652.16;;;5.84;100.00
43503;BME280;29098;48.184;16.298;2024-03-02T07:34:32;98629.94;;;5.71;100.00
43503;BME280;29098;48.184;16.298;2024-03-02T07:36:57;98622.91;;;5.72;100.00
43503;BME280;29098;48.184;16.298;2024-03-02T07:39:23;98620.16;;;5.65;100.00
43503;BME280;29098;48.184;16.298;2024-03-02T07:41:49;98650.84;;;5.80;100.00
43503;BME280;29098;48.184;16.298;2024-03-02T07:44:14;98643.81;;;5.80;100.00
43503;BME280;29098;48.184;16.298;2024-03-02T07:46:42;98673.91;;;5.76;100.00
43503;BME280;29098;48.184;16.298;2024-03-02T07:49:08;98694.66;;;5.78;100.00
43503;BME280;29098;48.184;16.298;2024-03-02T07:51:34;98666.41;;;5.65;100.00
43503;BME280;29098;48.184;16.298;2024-03-02T07:54:00;98649.75;;;5.66;100.00
43503;BME280;29098;48.184;16.298;2024-03-02T07:56:25;98666.25;;;5.58;100.00
43503;BME280;29098;48.184;16.298;2024-03-02T07:58:51;98643.41;;;5.43;100.00
43503;BME280;29098;48.184;16.298;2024-03-02T08:01:16;98655.31;;;5.54;100.00
43503;BME280;29098;48.184;16.298;2024-03-02T08:03:43;98673.94;;;5.51;100.00
43503;BME280;29098;48.184;16.298;2024-03-02T08:06:13;98670.31;;;5.69;100.00
43503;BME280;29098;48.184;16.298;2024-03-02T08:08:40;98627.69;;;5.60;100.00
43503;BME280;29098;48.184;16.298;2024-03-02T08:11:05;98654.91;;;5.90;100.00
43503;BME280;29098;48.184;16.298;2024-03-02T08:13:31;98639.56;;;5.79;100.00
43503;BME280;29098;48.184;16.298;2024-03-02T08:15:56;98662.59;;;5.92;100.00
43503;BME280;29098;48.184;16.298;2024-03-02T08:18:22;98637.88;;;5.95;100.00
43503;BME280;29098;48.184;16.298;2024-03-02T08:20:47;98692.94;;;6.18;100.00
43503;BME280;29098;48.184;16.298;2024-03-02T08:23:13;98647.13;;;6.22;100.00
43503;BME280;29098;48.184;16.298;2024-03-02T08:25:38;98696.25;;;6.03;100.00
43503;BME280;29098;48.184;16.298;2024-03-02T08:28:04;98637.13;;;5.78;100.00
43503;BME280;29098;48.184;16.298;2024-03-02T08:30:30;98635.59;;;5.92;100.00
43503;BME280;29098;48.184;16.298;2024-03-02T08:32:55;98652.44;;;5.89;100.00
43503;BME280;29098;48.184;16.298;2024-03-02T08:35:20;98675.31;;;6.03;100.00
43503;BME280;29098;48.184;16.298;2024-03-02T08:37:47;98642.78;;;6.06;100.00
43503;BME280;29098;48.184;16.298;2024-03-02T08:40:13;98650.03;;;6.27;100.00
43503;BME280;29098;48.184;16.298;2024-03-02T08:42:39;98660.50;;;6.27;100.00
43503;BME280;29098;48.184;16.298;2024-03-02T08:45:04;98690.88;;;6.45;100.00
43503;BME280;29098;48.184;16.298;2024-03-02T08:47:31;98685.94;;;6.50;100.00
43503;BME280;29098;48.184;16.298;2024-03-02T08:49:56;98658.69;;;6.36;100.00
43503;BME280;29098;48.184;16.298;2024-03-02T08:52:22;98649.03;;;6.37;100.00
43503;BME280;29098;48.184;16.298;2024-03-02T08:54:47;98667.00;;;6.40;100.00
43503;BME280;29098;48.184;16.298;2024-03-02T08:57:12;98686.88;;;6.57;100.00
43503;BME280;29098;48.184;16.298;2024-03-02T08:59:38;98652.91;;;6.41;100.00
43503;BME280;29098;48.184;16.298;2024-03-02T09:02:04;98634.59;;;6.41;100.00
43503;BME280;29098;48.184;16.298;2024-03-02T09:04:30;98679.38;;;6.54;100.00
43503;BME280;29098;48.184;16.298;2024-03-02T09:06:55;98649.06;;;6.60;100.00
43503;BME280;29098;48.184;16.298;2024-03-02T09:09:21;98670.91;;;6.76;100.00
43503;BME280;29098;48.184;16.298;2024-03-02T09:11:46;98668.09;;;6.77;100.00
43503;BME280;29098;48.184;16.298;2024-03-02T09:14:12;98659.88;;;6.80;100.00
43503;BME280;29098;48.184;16.298;2024-03-02T09:16:37;98688.09;;;7.02;100.00
43503;BME280;29098;48.184;16.298;2024-03-02T09:19:03;98649.28;;;6.97;100.00
43503;BME280;29098;48.184;16.298;2024-03-02T09:21:29;98650.28;;;6.96;100.00
43503;BME280;29098;48.184;16.298;2024-03-02T09:23:55;98649.66;;;6.94;100.00
43503;BME280;29098;48.184;16.298;2024-03-02T09:26:21;98635.31;;;7.05;100.00
43503;BME280;29098;48.184;16.298;2024-03-02T09:28:47;98661.75;;;6.95;100.00
43503;BME280;29098;48.184;16.298;2024-03-02T09:31:13;98639.28;;;7.01;100.00
43503;BME280;29098;48.184;16.298;2024-03-02T09:33:38;98617.50;;;7.00;100.00
43503;BME280;29098;48.184;16.298;2024-03-02T09:36:19;98629.22;;;7.12;100.00
43503;BME280;29098;48.184;16.298;2024-03-02T09:38:45;98629.47;;;7.18;100.00
43503;BME280;29098;48.184;16.298;2024-03-02T09:41:11;98629.13;;;7.21;100.00
43503;BME280;29098;48.184;16.298;2024-03-02T09:43:37;98651.03;;;7.28;100.00
43503;BME280;29098;48.184;16.298;2024-03-02T09:46:03;98646.69;;;7.35;100.00
43503;BME280;29098;48.184;16.298;2024-03-02T09:48:28;98644.72;;;7.37;100.00
43503;BME280;29098;48.184;16.298;2024-03-02T09:50:54;98669.72;;;7.63;100.00
43503;BME280;29098;48.184;16.298;2024-03-02T09:53:20;98664.13;;;7.66;100.00
43503;BME280;29098;48.184;16.298;2024-03-02T09:55:47;98637.22;;;7.64;100.00
43503;BME280;29098;48.184;16.298;2024-03-02T09:58:13;98597.16;;;7.40;100.00
43503;BME280;29098;48.184;16.298;2024-03-02T10:00:38;98645.66;;;7.75;100.00
43503;BME280;29098;48.184;16.298;2024-03-02T10:03:04;98611.19;;;7.63;100.00
43503;BME280;29098;48.184;16.298;2024-03-02T10:05:30;98619.94;;;7.70;100.00
43503;BME280;29098;48.184;16.298;2024-03-02T10:08:01;98651.44;;;7.85;100.00
43503;BME280;29098;48.184;16.298;2024-03-02T10:10:36;98614.19;;;7.75;100.00
43503;BME280;29098;48.184;16.298;2024-03-02T10:13:09;98655.06;;;7.99;100.00
43503;BME280;29098;48.184;16.298;2024-03-02T10:15:36;98596.00;;;7.73;100.00
43503;BME280;29098;48.184;16.298;2024-03-02T10:18:09;98614.63;;;7.78;100.00
43503;BME280;29098;48.184;16.298;2024-03-02T10:20:35;98658.13;;;8.03;100.00
43503;BME280;29098;48.184;16.298;2024-03-02T10:23:16;98649.91;;;8.06;100.00
43503;BME280;29098;48.184;16.298;2024-03-02T10:25:43;98606.56;;;7.80;100.00
43503;BME280;29098;48.184;16.298;2024-03-02T10:28:09;98628.63;;;8.01;100.00
43503;BME280;29098;48.184;16.298;2024-03-02T10:30:35;98652.88;;;8.03;100.00
43503;BME280;29098;48.184;16.298;2024-03-02T10:33:05;98633.72;;;7.87;100.00
43503;BME280;29098;48.184;16.298;2024-03-02T10:35:31;98604.41;;;7.99;100.00
43503;BME280;29098;48.184;16.298;2024-03-02T10:37:59;98595.63;;;7.91;100.00
43503;BME280;29098;48.184;16.298;2024-03-02T10:40:26;98661.66;;;8.25;100.00
43503;BME280;29098;48.184;16.298;2024-03-02T10:42:52;98604.19;;;8.15;100.00
43503;BME280;29098;48.184;16.298;2024-03-02T10:45:20;98610.34;;;8.07;100.00
43503;BME280;29098;48.184;16.298;2024-03-02T10:47:49;98596.19;;;8.23;100.00
43503;BME280;29098;48.184;16.298;2024-03-02T10:50:15;98654.31;;;8.35;100.00
43503;BME280;29098;48.184;16.298;2024-03-02T10:52:40;98628.53;;;8.24;100.00
43503;BME280;29098;48.184;16.298;2024-03-02T10:55:06;98589.59;;;8.13;100.00
43503;BME280;29098;48.184;16.298;2024-03-02T10:57:51;98588.88;;;8.19;100.00
43503;BME280;29098;48.184;16.298;2024-03-02T11:00:20;98642.00;;;8.36;100.00
43503;BME280;29098;48.184;16.298;2024-03-02T11:05:33;98589.94;;;8.25;100.00
43503;BME280;29098;48.184;16.298;2024-03-02T11:08:04;98599.97;;;8.36;100.00
43503;BME280;29098;48.184;16.298;2024-03-02T11:10:36;98592.94;;;8.43;100.00
43503;BME280;29098;48.184;16.298;2024-03-02T11:13:05;98604.09;;;8.45;100.00
43503;BME280;29098;48.184;16.298;2024-03-02T11:15:34;98581.38;;;8.38;100.00
43503;BME280;29098;48.184;16.298;2024-03-02T11:18:04;98614.16;;;8.42;100.00
43503;BME280;29098;48.184;16.298;2024-03-02T11:20:38;98598.47;;;8.48;100.00
43503;BME280;29098;48.184;16.298;2024-03-02T11:23:05;98598.81;;;8.60;100.00
43503;BME280;29098;48.184;16.298;2024-03-02T11:25:31;98617.91;;;8.69;100.00
43503;BME280;29098;48.184;16.298;2024-03-02T11:28:02;98626.50;;;8.78;100.00
43503;BME280;29098;48.184;16.298;2024-03-02T11:33:00;98574.00;;;8.63;100.00
43503;BME280;29098;48.184;16.298;2024-03-02T11:35:26;98606.56;;;8.90;100.00
43503;BME280;29098;48.184;16.298;2024-03-02T11:37:52;98620.19;;;9.01;100.00
43503;BME280;29098;48.184;16.298;2024-03-02T11:40:28;98591.94;;;8.81;100.00
43503;BME280;29098;48.184;16.298;2024-03-02T11:42:54;98624.84;;;8.99;100.00
43503;BME280;29098;48.184;16.298;2024-03-02T11:45:24;98630.19;;;9.06;100.00
43503;BME280;29098;48.184;16.298;2024-03-02T11:47:51;98602.22;;;9.04;100.00
43503;BME280;29098;48.184;16.298;2024-03-02T11:50:30;98612.84;;;9.18;100.00
43503;BME280;29098;48.184;16.298;2024-03-02T11:52:56;98626.72;;;9.34;100.00
43503;BME280;29098;48.184;16.298;2024-03-02T11:55:25;98601.84;;;9.29;100.00
43503;BME280;29098;48.184;16.298;2024-03-02T11:57:52;98596.41;;;9.38;100.00
43503;BME280;29098;48.184;16.298;2024-03-02T12:00:19;98593.22;;;9.42;100.00
43503;BME280;29098;48.184;16.298;2024-03-02T12:02:46;98611.22;;;9.45;100.00
43503;BME280;29098;48.184;16.298;2024-03-02T12:05:15;98587.34;;;9.40;100.00
43503;BME280;29098;48.184;16.298;2024-03-02T12:07:42;98590.03;;;9.54;100.00
43503;BME280;29098;48.184;16.298;2024-03-02T12:10:08;98593.25;;;9.49;100.00
43503;BME280;29098;48.184;16.298;2024-03-02T12:12:34;98611.16;;;9.67;100.00
43503;BME280;29098;48.184;16.298;2024-03-02T12:14:59;98593.41;;;9.76;100.00
43503;BME280;29098;48.184;16.298;2024-03-02T12:17:26;98629.09;;;9.92;100.00
43503;BME280;29098;48.184;16.298;2024-03-02T12:19:51;98588.59;;;9.93;100.00
43503;BME280;29098;48.184;16.298;2024-03-02T12:22:18;98602.06;;;10.12;100.00
43503;BME280;29098;48.184;16.298;2024-03-02T12:24:44;98589.31;;;10.16;100.00
43503;BME280;29098;48.184;16.298;2024-03-02T12:27:14;98615.53;;;10.37;100.00
43503;BME280;29098;48.184;16.298;2024-03-02T12:29:40;98585.72;;;10.37;100.00
43503;BME280;29098;48.184;16.298;2024-03-02T12:32:06;98595.31;;;10.51;100.00
43503;BME280;29098;48.184;16.298;2024-03-02T12:34:32;98586.81;;;10.69;100.00
43503;BME280;29098;48.184;16.298;2024-03-02T12:36:58;98581.56;;;10.96;100.00
43503;BME280;29098;48.184;16.298;2024-03-02T12:39:23;98617.28;;;11.06;100.00
43503;BME280;29098;48.184;16.298;2024-03-02T12:41:50;98578.31;;;10.88;100.00
43503;BME280;29098;48.184;16.298;2024-03-02T12:44:17;98599.81;;;10.98;100.00
43503;BME280;29098;48.184;16.298;2024-03-02T12:46:43;98610.38;;;10.91;100.00
43503;BME280;29098;48.184;16.298;2024-03-02T12:49:11;98581.56;;;10.96;100.00
43503;BME280;29098;48.184;16.298;2024-03-02T12:51:40;98613.59;;;11.20;100.00
43503;BME280;29098;48.184;16.298;2024-03-02T12:54:06;98588.84;;;11.28;100.00